sensor_id;sensor_type;location;lat;lon;timestamp;temperature;humidity
27978;DHT22;15314;49.248;6.968;2022-07-23T00:00:19;22.80;77.20
27978;DHT22;15314;49.248;6.968;2022-07-23T00:01:21;22.80;77.40
27978;DHT22;15314;49.248;6.968;2022-07-23T00:02:21;22.70;77.00
27978;DHT22;15314;49.248;6.968;2022-07-23T00:03:22;22.70;77.90
27978;DHT22;15314;49.248;6.968;2022-07-23T00:04:23;22.70;78.30
27978;DHT22;15314;49.248;6.968;2022-07-23T00:05:24;22.60;78.60
27978;DHT22;15314;49.248;6.968;2022-07-23T00:06:25;22.50;78.50
27978;DHT22;15314;49.248;6.968;2022-07-23T00:07:25;22.50;78.60
27978;DHT22;15314;49.248;6.968;2022-07-23T00:08:26;22.40;78.70
27978;DHT22;15314;49.248;6.968;2022-07-23T00:09:26;22.40;78.80
27978;DHT22;15314;49.248;6.968;2022-07-23T00:10:28;22.50;79.00
27978;DHT22;15314;49.248;6.968;2022-07-23T00:11:29;22.50;78.00
27978;DHT22;15314;49.248;6.968;2022-07-23T00:12:30;22.60;77.40
27978;DHT22;15314;49.248;6.968;2022-07-23T00:13:30;22.60;77.70
27978;DHT22;15314;49.248;6.968;2022-07-23T00:14:31;22.60;77.50
27978;DHT22;15314;49.248;6.968;2022-07-23T00:15:32;22.60;77.30
27978;DHT22;15314;49.248;6.968;2022-07-23T00:16:32;22.70;77.30
27978;DHT22;15314;49.248;6.968;2022-07-23T00:17:33;22.70;77.30
27978;DHT22;15314;49.248;6.968;2022-07-23T00:18:34;22.70;76.90
27978;DHT22;15314;49.248;6.968;2022-07-23T00:19:35;22.70;76.70
27978;DHT22;15314;49.248;6.968;2022-07-23T00:20:35;22.70;76.90
27978;DHT22;15314;49.248;6.968;2022-07-23T00:21:36;22.70;76.70
27978;DHT22;15314;49.248;6.968;2022-07-23T00:22:36;22.70;76.90
27978;DHT22;15314;49.248;6.968;2022-07-23T00:23:45;22.70;77.00
27978;DHT22;15314;49.248;6.968;2022-07-23T00:24:46;22.70;77.20
27978;DHT22;15314;49.248;6.968;2022-07-23T00:25:46;22.70;77.30
27978;DHT22;15314;49.248;6.968;2022-07-23T00:26:47;22.70;77.30
27978;DHT22;15314;49.248;6.968;2022-07-23T00:27:48;22.70;77.50
27978;DHT22;15314;49.248;6.968;2022-07-23T00:28:48;22.60;77.70
27978;DHT22;15314;49.248;6.968;2022-07-23T00:29:49;22.70;77.90
27978;DHT22;15314;49.248;6.968;2022-07-23T00:30:50;22.70;77.90
27978;DHT22;15314;49.248;6.968;2022-07-23T00:31:50;22.60;78.30
27978;DHT22;15314;49.248;6.968;2022-07-23T00:33:03;22.60;78.50
27978;DHT22;15314;49.248;6.968;2022-07-23T00:34:04;22.60;78.60
27978;DHT22;15314;49.248;6.968;2022-07-23T00:35:05;22.50;78.50
27978;DHT22;15314;49.248;6.968;2022-07-23T00:36:06;22.50;79.10
27978;DHT22;15314;49.248;6.968;2022-07-23T00:37:06;22.40;79.90
27978;DHT22;15314;49.248;6.968;2022-07-23T00:38:08;22.30;80.40
27978;DHT22;15314;49.248;6.968;2022-07-23T00:39:10;22.20;80.70
27978;DHT22;15314;49.248;6.968;2022-07-23T00:40:11;22.20;81.30
27978;DHT22;15314;49.248;6.968;2022-07-23T00:41:11;22.20;81.30
27978;DHT22;15314;49.248;6.968;2022-07-23T00:42:12;22.20;81.90
27978;DHT22;15314;49.248;6.968;2022-07-23T00:43:13;22.20;82.20
27978;DHT22;15314;49.248;6.968;2022-07-23T00:44:18;22.20;82.40
27978;DHT22;15314;49.248;6.968;2022-07-23T00:45:19;22.20;82.40
27978;DHT22;15314;49.248;6.968;2022-07-23T00:46:23;22.20;82.40
27978;DHT22;15314;49.248;6.968;2022-07-23T00:47:25;22.20;82.20
27978;DHT22;15314;49.248;6.968;2022-07-23T00:48:26;22.10;82.00
27978;DHT22;15314;49.248;6.968;2022-07-23T00:49:29;22.10;81.90
27978;DHT22;15314;49.248;6.968;2022-07-23T00:50:30;22.10;82.30
27978;DHT22;15314;49.248;6.968;2022-07-23T00:51:30;22.10;83.30
27978;DHT22;15314;49.248;6.968;2022-07-23T00:52:32;22.00;82.60
27978;DHT22;15314;49.248;6.968;2022-07-23T00:53:33;22.10;82.40
27978;DHT22;15314;49.248;6.968;2022-07-23T00:54:34;22.10;82.50
27978;DHT22;15314;49.248;6.968;2022-07-23T00:55:35;22.10;82.30
27978;DHT22;15314;49.248;6.968;2022-07-23T00:56:35;22.20;82.90
27978;DHT22;15314;49.248;6.968;2022-07-23T00:57:37;22.00;83.20
27978;DHT22;15314;49.248;6.968;2022-07-23T00:58:39;22.00;83.60
27978;DHT22;15314;49.248;6.968;2022-07-23T00:59:43;22.00;84.00
27978;DHT22;15314;49.248;6.968;2022-07-23T01:00:43;22.10;83.80
27978;DHT22;15314;49.248;6.968;2022-07-23T01:01:44;22.10;83.90
27978;DHT22;15314;49.248;6.968;2022-07-23T01:02:45;22.10;83.00
27978;DHT22;15314;49.248;6.968;2022-07-23T01:03:46;22.00;84.30
27978;DHT22;15314;49.248;6.968;2022-07-23T01:04:47;22.00;85.40
27978;DHT22;15314;49.248;6.968;2022-07-23T01:05:47;21.90;85.80
27978;DHT22;15314;49.248;6.968;2022-07-23T01:06:48;21.90;85.50
27978;DHT22;15314;49.248;6.968;2022-07-23T01:07:50;21.90;85.30
27978;DHT22;15314;49.248;6.968;2022-07-23T01:08:53;21.80;87.10
27978;DHT22;15314;49.248;6.968;2022-07-23T01:09:54;21.80;86.90
27978;DHT22;15314;49.248;6.968;2022-07-23T01:10:56;21.70;87.30
27978;DHT22;15314;49.248;6.968;2022-07-23T01:11:57;21.70;87.40
27978;DHT22;15314;49.248;6.968;2022-07-23T01:13:01;21.70;87.50
27978;DHT22;15314;49.248;6.968;2022-07-23T01:14:16;21.70;87.50
27978;DHT22;15314;49.248;6.968;2022-07-23T01:15:17;21.70;88.30
27978;DHT22;15314;49.248;6.968;2022-07-23T01:16:17;21.70;88.20
27978;DHT22;15314;49.248;6.968;2022-07-23T01:17:18;21.60;88.80
27978;DHT22;15314;49.248;6.968;2022-07-23T01:18:19;21.60;88.70
27978;DHT22;15314;49.248;6.968;2022-07-23T01:19:19;21.60;88.70
27978;DHT22;15314;49.248;6.968;2022-07-23T01:20:21;21.60;89.20
27978;DHT22;15314;49.248;6.968;2022-07-23T01:21:21;21.60;88.70
27978;DHT22;15314;49.248;6.968;2022-07-23T01:22:28;21.60;88.70
27978;DHT22;15314;49.248;6.968;2022-07-23T01:23:29;21.60;88.40
27978;DHT22;15314;49.248;6.968;2022-07-23T01:24:29;21.60;88.40
27978;DHT22;15314;49.248;6.968;2022-07-23T01:25:30;21.50;89.80
27978;DHT22;15314;49.248;6.968;2022-07-23T01:26:31;21.40;89.80
27978;DHT22;15314;49.248;6.968;2022-07-23T01:27:32;21.40;90.10
27978;DHT22;15314;49.248;6.968;2022-07-23T01:28:32;21.40;89.70
27978;DHT22;15314;49.248;6.968;2022-07-23T01:29:33;21.50;89.90
27978;DHT22;15314;49.248;6.968;2022-07-23T01:30:33;21.40;89.10
27978;DHT22;15314;49.248;6.968;2022-07-23T01:31:34;21.50;88.40
27978;DHT22;15314;49.248;6.968;2022-07-23T01:32:35;21.50;89.30
27978;DHT22;15314;49.248;6.968;2022-07-23T01:33:35;21.40;90.00
27978;DHT22;15314;49.248;6.968;2022-07-23T01:34:36;21.50;90.10
27978;DHT22;15314;49.248;6.968;2022-07-23T01:35:37;21.40;90.20
27978;DHT22;15314;49.248;6.968;2022-07-23T01:36:37;21.40;90.20
27978;DHT22;15314;49.248;6.968;2022-07-23T01:37:38;21.50;90.30
27978;DHT22;15314;49.248;6.968;2022-07-23T01:38:39;21.50;90.30
27978;DHT22;15314;49.248;6.968;2022-07-23T01:39:39;21.50;90.40
27978;DHT22;15314;49.248;6.968;2022-07-23T01:40:40;21.50;90.50
27978;DHT22;15314;49.248;6.968;2022-07-23T01:41:41;21.50;90.30
27978;DHT22;15314;49.248;6.968;2022-07-23T01:42:41;21.50;89.70
27978;DHT22;15314;49.248;6.968;2022-07-23T01:43:42;21.50;89.80
27978;DHT22;15314;49.248;6.968;2022-07-23T01:44:42;21.50;90.00
27978;DHT22;15314;49.248;6.968;2022-07-23T01:45:43;21.50;90.40
27978;DHT22;15314;49.248;6.968;2022-07-23T01:46:44;21.40;90.60
27978;DHT22;15314;49.248;6.968;2022-07-23T01:47:45;21.30;90.80
27978;DHT22;15314;49.248;6.968;2022-07-23T01:48:46;21.30;91.20
27978;DHT22;15314;49.248;6.968;2022-07-23T01:49:47;21.20;91.20
27978;DHT22;15314;49.248;6.968;2022-07-23T01:50:48;21.20;91.20
27978;DHT22;15314;49.248;6.968;2022-07-23T01:51:48;21.20;91.30
27978;DHT22;15314;49.248;6.968;2022-07-23T01:53:01;21.20;91.20
27978;DHT22;15314;49.248;6.968;2022-07-23T01:54:02;21.20;91.40
27978;DHT22;15314;49.248;6.968;2022-07-23T01:55:03;21.20;91.60
27978;DHT22;15314;49.248;6.968;2022-07-23T01:56:04;21.20;91.60
27978;DHT22;15314;49.248;6.968;2022-07-23T01:57:06;21.30;91.70
27978;DHT22;15314;49.248;6.968;2022-07-23T01:58:06;21.20;92.00
27978;DHT22;15314;49.248;6.968;2022-07-23T01:59:07;21.30;92.00
27978;DHT22;15314;49.248;6.968;2022-07-23T02:00:08;21.30;91.80
27978;DHT22;15314;49.248;6.968;2022-07-23T02:01:09;21.30;92.00
27978;DHT22;15314;49.248;6.968;2022-07-23T02:02:10;21.30;92.00
27978;DHT22;15314;49.248;6.968;2022-07-23T02:03:10;21.30;92.20
27978;DHT22;15314;49.248;6.968;2022-07-23T02:04:11;21.40;92.10
27978;DHT22;15314;49.248;6.968;2022-07-23T02:05:12;21.30;92.20
27978;DHT22;15314;49.248;6.968;2022-07-23T02:06:12;21.30;91.70
27978;DHT22;15314;49.248;6.968;2022-07-23T02:07:13;21.30;91.40
27978;DHT22;15314;49.248;6.968;2022-07-23T02:08:14;21.40;91.60
27978;DHT22;15314;49.248;6.968;2022-07-23T02:09:15;21.40;91.70
27978;DHT22;15314;49.248;6.968;2022-07-23T02:10:16;21.40;91.90
27978;DHT22;15314;49.248;6.968;2022-07-23T02:11:16;21.40;91.80
27978;DHT22;15314;49.248;6.968;2022-07-23T02:12:17;21.30;92.00
27978;DHT22;15314;49.248;6.968;2022-07-23T02:13:18;21.30;91.90
27978;DHT22;15314;49.248;6.968;2022-07-23T02:14:18;21.30;92.20
27978;DHT22;15314;49.248;6.968;2022-07-23T02:15:20;21.30;92.30
27978;DHT22;15314;49.248;6.968;2022-07-23T02:16:20;21.20;92.50
27978;DHT22;15314;49.248;6.968;2022-07-23T02:17:21;21.20;92.80
27978;DHT22;15314;49.248;6.968;2022-07-23T02:18:22;21.10;92.90
27978;DHT22;15314;49.248;6.968;2022-07-23T02:19:22;21.10;93.20
27978;DHT22;15314;49.248;6.968;2022-07-23T02:20:23;21.00;93.40
27978;DHT22;15314;49.248;6.968;2022-07-23T02:21:24;21.00;93.40
27978;DHT22;15314;49.248;6.968;2022-07-23T02:22:24;21.00;93.50
27978;DHT22;15314;49.248;6.968;2022-07-23T02:23:25;21.00;93.60
27978;DHT22;15314;49.248;6.968;2022-07-23T02:24:26;21.00;93.70
27978;DHT22;15314;49.248;6.968;2022-07-23T02:25:26;21.00;93.70
27978;DHT22;15314;49.248;6.968;2022-07-23T02:26:27;21.10;93.50
27978;DHT22;15314;49.248;6.968;2022-07-23T02:27:28;21.20;93.20
27978;DHT22;15314;49.248;6.968;2022-07-23T02:28:28;21.20;93.50
27978;DHT22;15314;49.248;6.968;2022-07-23T02:29:29;21.20;93.20
27978;DHT22;15314;49.248;6.968;2022-07-23T02:30:30;21.30;93.10
27978;DHT22;15314;49.248;6.968;2022-07-23T02:31:31;21.30;92.90
27978;DHT22;15314;49.248;6.968;2022-07-23T02:32:31;21.30;92.90
27978;DHT22;15314;49.248;6.968;2022-07-23T02:33:33;21.40;92.70
27978;DHT22;15314;49.248;6.968;2022-07-23T02:34:33;21.40;92.50
27978;DHT22;15314;49.248;6.968;2022-07-23T02:35:34;21.40;92.80
27978;DHT22;15314;49.248;6.968;2022-07-23T02:36:35;21.30;92.90
27978;DHT22;15314;49.248;6.968;2022-07-23T02:37:35;21.30;92.80
27978;DHT22;15314;49.248;6.968;2022-07-23T02:38:36;21.30;93.00
27978;DHT22;15314;49.248;6.968;2022-07-23T02:39:37;21.30;93.10
27978;DHT22;15314;49.248;6.968;2022-07-23T02:40:37;21.30;93.20
27978;DHT22;15314;49.248;6.968;2022-07-23T02:41:38;21.30;93.10
27978;DHT22;15314;49.248;6.968;2022-07-23T02:42:38;21.30;92.90
27978;DHT22;15314;49.248;6.968;2022-07-23T02:43:39;21.30;93.10
27978;DHT22;15314;49.248;6.968;2022-07-23T02:44:40;21.20;93.10
27978;DHT22;15314;49.248;6.968;2022-07-23T02:45:40;21.20;93.10
27978;DHT22;15314;49.248;6.968;2022-07-23T02:46:41;21.20;93.00
27978;DHT22;15314;49.248;6.968;2022-07-23T02:47:42;21.30;93.00
27978;DHT22;15314;49.248;6.968;2022-07-23T02:48:42;21.30;93.00
27978;DHT22;15314;49.248;6.968;2022-07-23T02:49:43;21.30;93.00
27978;DHT22;15314;49.248;6.968;2022-07-23T02:50:44;21.40;93.20
27978;DHT22;15314;49.248;6.968;2022-07-23T02:51:44;21.30;93.00
27978;DHT22;15314;49.248;6.968;2022-07-23T02:52:45;21.30;93.10
27978;DHT22;15314;49.248;6.968;2022-07-23T02:53:45;21.20;93.30
27978;DHT22;15314;49.248;6.968;2022-07-23T02:54:46;21.20;93.60
27978;DHT22;15314;49.248;6.968;2022-07-23T02:55:47;21.10;94.10
27978;DHT22;15314;49.248;6.968;2022-07-23T02:56:47;21.10;94.30
27978;DHT22;15314;49.248;6.968;2022-07-23T02:57:48;21.20;94.20
27978;DHT22;15314;49.248;6.968;2022-07-23T02:58:49;21.10;94.40
27978;DHT22;15314;49.248;6.968;2022-07-23T02:59:49;21.10;94.50
27978;DHT22;15314;49.248;6.968;2022-07-23T03:00:50;21.20;94.00
27978;DHT22;15314;49.248;6.968;2022-07-23T03:01:51;21.20;93.90
27978;DHT22;15314;49.248;6.968;2022-07-23T03:02:51;21.30;94.10
27978;DHT22;15314;49.248;6.968;2022-07-23T03:03:52;21.20;94.30
27978;DHT22;15314;49.248;6.968;2022-07-23T03:04:53;21.10;94.70
27978;DHT22;15314;49.248;6.968;2022-07-23T03:05:53;21.10;94.70
27978;DHT22;15314;49.248;6.968;2022-07-23T03:06:54;21.20;94.70
27978;DHT22;15314;49.248;6.968;2022-07-23T03:07:55;21.10;94.50
27978;DHT22;15314;49.248;6.968;2022-07-23T03:08:55;21.00;94.60
27978;DHT22;15314;49.248;6.968;2022-07-23T03:09:56;21.00;94.70
27978;DHT22;15314;49.248;6.968;2022-07-23T03:10:56;21.00;94.50
27978;DHT22;15314;49.248;6.968;2022-07-23T03:11:57;21.10;94.80
27978;DHT22;15314;49.248;6.968;2022-07-23T03:12:58;21.10;95.00
27978;DHT22;15314;49.248;6.968;2022-07-23T03:13:58;21.10;95.00
27978;DHT22;15314;49.248;6.968;2022-07-23T03:14:59;21.00;94.70
27978;DHT22;15314;49.248;6.968;2022-07-23T03:16:00;21.00;95.00
27978;DHT22;15314;49.248;6.968;2022-07-23T03:17:00;21.10;95.20
27978;DHT22;15314;49.248;6.968;2022-07-23T03:18:01;21.20;95.30
27978;DHT22;15314;49.248;6.968;2022-07-23T03:19:02;21.10;95.30
27978;DHT22;15314;49.248;6.968;2022-07-23T03:20:02;21.10;95.50
27978;DHT22;15314;49.248;6.968;2022-07-23T03:21:03;21.10;95.60
27978;DHT22;15314;49.248;6.968;2022-07-23T03:22:04;21.10;95.70
27978;DHT22;15314;49.248;6.968;2022-07-23T03:23:05;21.10;95.90
27978;DHT22;15314;49.248;6.968;2022-07-23T03:24:08;21.00;96.30
27978;DHT22;15314;49.248;6.968;2022-07-23T03:25:09;20.90;96.70
27978;DHT22;15314;49.248;6.968;2022-07-23T03:26:10;20.90;97.00
27978;DHT22;15314;49.248;6.968;2022-07-23T03:27:11;20.80;96.90
27978;DHT22;15314;49.248;6.968;2022-07-23T03:28:11;20.80;96.70
27978;DHT22;15314;49.248;6.968;2022-07-23T03:29:12;20.90;96.70
27978;DHT22;15314;49.248;6.968;2022-07-23T03:30:13;20.90;96.50
27978;DHT22;15314;49.248;6.968;2022-07-23T03:31:13;21.00;96.20
27978;DHT22;15314;49.248;6.968;2022-07-23T03:32:14;21.00;96.00
27978;DHT22;15314;49.248;6.968;2022-07-23T03:33:16;21.00;96.00
27978;DHT22;15314;49.248;6.968;2022-07-23T03:34:17;21.00;96.20
27978;DHT22;15314;49.248;6.968;2022-07-23T03:35:18;21.10;95.90
27978;DHT22;15314;49.248;6.968;2022-07-23T03:36:19;21.00;95.70
27978;DHT22;15314;49.248;6.968;2022-07-23T03:37:20;21.10;95.70
27978;DHT22;15314;49.248;6.968;2022-07-23T03:38:21;21.10;95.60
27978;DHT22;15314;49.248;6.968;2022-07-23T03:39:21;21.10;95.70
27978;DHT22;15314;49.248;6.968;2022-07-23T03:40:22;21.10;95.50
27978;DHT22;15314;49.248;6.968;2022-07-23T03:41:23;21.20;95.70
27978;DHT22;15314;49.248;6.968;2022-07-23T03:42:23;21.10;95.80
27978;DHT22;15314;49.248;6.968;2022-07-23T03:43:24;21.20;95.60
27978;DHT22;15314;49.248;6.968;2022-07-23T03:44:26;21.20;95.60
27978;DHT22;15314;49.248;6.968;2022-07-23T03:45:26;21.20;95.90
27978;DHT22;15314;49.248;6.968;2022-07-23T03:46:27;21.20;95.80
27978;DHT22;15314;49.248;6.968;2022-07-23T03:47:28;21.10;95.90
27978;DHT22;15314;49.248;6.968;2022-07-23T03:48:28;21.10;95.80
27978;DHT22;15314;49.248;6.968;2022-07-23T03:49:29;21.10;95.70
27978;DHT22;15314;49.248;6.968;2022-07-23T03:50:30;21.10;95.60
27978;DHT22;15314;49.248;6.968;2022-07-23T03:51:31;21.10;95.60
27978;DHT22;15314;49.248;6.968;2022-07-23T03:52:32;21.30;95.70
27978;DHT22;15314;49.248;6.968;2022-07-23T03:53:33;21.10;95.60
27978;DHT22;15314;49.248;6.968;2022-07-23T03:54:33;21.10;95.60
27978;DHT22;15314;49.248;6.968;2022-07-23T03:55:34;21.10;95.80
27978;DHT22;15314;49.248;6.968;2022-07-23T03:56:35;21.10;95.80
27978;DHT22;15314;49.248;6.968;2022-07-23T03:57:36;21.00;96.10
27978;DHT22;15314;49.248;6.968;2022-07-23T03:58:36;21.00;96.20
27978;DHT22;15314;49.248;6.968;2022-07-23T03:59:37;21.00;95.90
27978;DHT22;15314;49.248;6.968;2022-07-23T04:00:37;21.00;96.20
27978;DHT22;15314;49.248;6.968;2022-07-23T04:01:38;21.00;95.80
27978;DHT22;15314;49.248;6.968;2022-07-23T04:02:39;21.00;95.90
27978;DHT22;15314;49.248;6.968;2022-07-23T04:03:39;21.10;95.80
27978;DHT22;15314;49.248;6.968;2022-07-23T04:04:40;21.10;95.90
27978;DHT22;15314;49.248;6.968;2022-07-23T04:05:41;21.00;96.30
27978;DHT22;15314;49.248;6.968;2022-07-23T04:06:41;20.90;96.70
27978;DHT22;15314;49.248;6.968;2022-07-23T04:07:42;20.90;96.60
27978;DHT22;15314;49.248;6.968;2022-07-23T04:08:43;20.90;96.60
27978;DHT22;15314;49.248;6.968;2022-07-23T04:09:44;20.90;96.10
27978;DHT22;15314;49.248;6.968;2022-07-23T04:10:44;21.00;96.30
27978;DHT22;15314;49.248;6.968;2022-07-23T04:11:45;21.00;96.00
27978;DHT22;15314;49.248;6.968;2022-07-23T04:12:46;21.00;95.70
27978;DHT22;15314;49.248;6.968;2022-07-23T04:13:46;21.10;95.80
27978;DHT22;15314;49.248;6.968;2022-07-23T04:14:47;21.10;95.90
27978;DHT22;15314;49.248;6.968;2022-07-23T04:15:47;21.10;95.90
27978;DHT22;15314;49.248;6.968;2022-07-23T04:16:48;21.00;95.80
27978;DHT22;15314;49.248;6.968;2022-07-23T04:17:49;21.00;95.90
27978;DHT22;15314;49.248;6.968;2022-07-23T04:18:49;21.00;96.10
27978;DHT22;15314;49.248;6.968;2022-07-23T04:19:50;21.00;95.90
27978;DHT22;15314;49.248;6.968;2022-07-23T04:20:51;21.10;96.10
27978;DHT22;15314;49.248;6.968;2022-07-23T04:21:52;21.00;96.40
27978;DHT22;15314;49.248;6.968;2022-07-23T04:22:53;21.00;96.30
27978;DHT22;15314;49.248;6.968;2022-07-23T04:23:53;20.90;96.30
27978;DHT22;15314;49.248;6.968;2022-07-23T04:24:54;21.00;96.30
27978;DHT22;15314;49.248;6.968;2022-07-23T04:25:55;21.00;96.10
27978;DHT22;15314;49.248;6.968;2022-07-23T04:26:55;21.00;96.40
27978;DHT22;15314;49.248;6.968;2022-07-23T04:27:56;20.90;96.70
27978;DHT22;15314;49.248;6.968;2022-07-23T04:28:56;20.90;96.40
27978;DHT22;15314;49.248;6.968;2022-07-23T04:29:57;21.00;96.40
27978;DHT22;15314;49.248;6.968;2022-07-23T04:30:58;21.00;96.80
27978;DHT22;15314;49.248;6.968;2022-07-23T04:31:59;21.00;96.70
27978;DHT22;15314;49.248;6.968;2022-07-23T04:33:00;20.90;96.80
27978;DHT22;15314;49.248;6.968;2022-07-23T04:34:00;21.00;96.80
27978;DHT22;15314;49.248;6.968;2022-07-23T04:35:01;21.00;96.60
27978;DHT22;15314;49.248;6.968;2022-07-23T04:36:01;21.10;96.30
27978;DHT22;15314;49.248;6.968;2022-07-23T04:37:02;21.10;96.40
27978;DHT22;15314;49.248;6.968;2022-07-23T04:38:03;21.20;96.30
27978;DHT22;15314;49.248;6.968;2022-07-23T04:39:04;21.20;96.20
27978;DHT22;15314;49.248;6.968;2022-07-23T04:40:05;21.20;96.30
27978;DHT22;15314;49.248;6.968;2022-07-23T04:41:06;21.20;96.30
27978;DHT22;15314;49.248;6.968;2022-07-23T04:42:06;21.30;96.20
27978;DHT22;15314;49.248;6.968;2022-07-23T04:43:07;21.30;96.20
27978;DHT22;15314;49.248;6.968;2022-07-23T04:44:08;21.30;96.30
27978;DHT22;15314;49.248;6.968;2022-07-23T04:45:09;21.30;96.20
27978;DHT22;15314;49.248;6.968;2022-07-23T04:46:09;21.40;96.30
27978;DHT22;15314;49.248;6.968;2022-07-23T04:47:11;21.40;96.10
27978;DHT22;15314;49.248;6.968;2022-07-23T04:48:11;21.40;96.30
27978;DHT22;15314;49.248;6.968;2022-07-23T04:49:12;21.30;96.30
27978;DHT22;15314;49.248;6.968;2022-07-23T04:50:13;21.40;96.50
27978;DHT22;15314;49.248;6.968;2022-07-23T04:51:17;21.30;96.50
27978;DHT22;15314;49.248;6.968;2022-07-23T04:52:18;21.30;96.60
27978;DHT22;15314;49.248;6.968;2022-07-23T04:53:19;21.30;96.50
27978;DHT22;15314;49.248;6.968;2022-07-23T04:54:20;21.40;96.50
27978;DHT22;15314;49.248;6.968;2022-07-23T04:55:20;21.40;96.40
27978;DHT22;15314;49.248;6.968;2022-07-23T04:56:21;21.40;96.50
27978;DHT22;15314;49.248;6.968;2022-07-23T04:57:22;21.30;96.70
27978;DHT22;15314;49.248;6.968;2022-07-23T04:58:23;21.30;96.60
27978;DHT22;15314;49.248;6.968;2022-07-23T04:59:24;21.30;96.60
27978;DHT22;15314;49.248;6.968;2022-07-23T05:00:25;21.20;96.50
27978;DHT22;15314;49.248;6.968;2022-07-23T05:01:26;21.30;96.60
27978;DHT22;15314;49.248;6.968;2022-07-23T05:02:27;21.30;96.40
27978;DHT22;15314;49.248;6.968;2022-07-23T05:03:27;21.30;96.40
27978;DHT22;15314;49.248;6.968;2022-07-23T05:04:28;21.20;96.60
27978;DHT22;15314;49.248;6.968;2022-07-23T05:05:29;21.20;96.70
27978;DHT22;15314;49.248;6.968;2022-07-23T05:06:30;21.20;96.50
27978;DHT22;15314;49.248;6.968;2022-07-23T05:07:30;21.10;96.50
27978;DHT22;15314;49.248;6.968;2022-07-23T05:08:34;21.00;96.60
27978;DHT22;15314;49.248;6.968;2022-07-23T05:09:34;21.10;96.50
27978;DHT22;15314;49.248;6.968;2022-07-23T05:10:35;21.10;96.50
27978;DHT22;15314;49.248;6.968;2022-07-23T05:11:36;21.10;96.40
27978;DHT22;15314;49.248;6.968;2022-07-23T05:12:36;21.20;96.50
27978;DHT22;15314;49.248;6.968;2022-07-23T05:13:37;21.20;96.50
27978;DHT22;15314;49.248;6.968;2022-07-23T05:14:38;21.20;96.50
27978;DHT22;15314;49.248;6.968;2022-07-23T05:15:38;21.20;96.60
27978;DHT22;15314;49.248;6.968;2022-07-23T05:16:39;21.20;96.60
27978;DHT22;15314;49.248;6.968;2022-07-23T05:17:40;21.10;97.00
27978;DHT22;15314;49.248;6.968;2022-07-23T05:18:40;21.10;96.90
27978;DHT22;15314;49.248;6.968;2022-07-23T05:19:41;21.10;96.80
27978;DHT22;15314;49.248;6.968;2022-07-23T05:20:42;21.10;97.00
27978;DHT22;15314;49.248;6.968;2022-07-23T05:21:42;21.10;97.30
27978;DHT22;15314;49.248;6.968;2022-07-23T05:22:43;21.10;96.80
27978;DHT22;15314;49.248;6.968;2022-07-23T05:23:44;21.10;96.80
27978;DHT22;15314;49.248;6.968;2022-07-23T05:24:44;21.10;96.70
27978;DHT22;15314;49.248;6.968;2022-07-23T05:25:45;21.10;96.80
27978;DHT22;15314;49.248;6.968;2022-07-23T05:26:45;21.20;97.10
27978;DHT22;15314;49.248;6.968;2022-07-23T05:27:46;21.10;97.10
27978;DHT22;15314;49.248;6.968;2022-07-23T05:28:47;21.10;96.90
27978;DHT22;15314;49.248;6.968;2022-07-23T05:29:47;21.20;97.00
27978;DHT22;15314;49.248;6.968;2022-07-23T05:30:48;21.30;96.70
27978;DHT22;15314;49.248;6.968;2022-07-23T05:31:48;21.40;96.20
27978;DHT22;15314;49.248;6.968;2022-07-23T05:32:49;21.50;95.80
27978;DHT22;15314;49.248;6.968;2022-07-23T05:33:50;21.60;95.70
27978;DHT22;15314;49.248;6.968;2022-07-23T05:34:50;21.60;95.50
27978;DHT22;15314;49.248;6.968;2022-07-23T05:35:51;21.70;95.20
27978;DHT22;15314;49.248;6.968;2022-07-23T05:36:52;21.80;94.90
27978;DHT22;15314;49.248;6.968;2022-07-23T05:37:52;21.80;94.70
27978;DHT22;15314;49.248;6.968;2022-07-23T05:38:53;21.90;94.50
27978;DHT22;15314;49.248;6.968;2022-07-23T05:39:53;21.90;94.40
27978;DHT22;15314;49.248;6.968;2022-07-23T05:40:54;22.10;94.40
27978;DHT22;15314;49.248;6.968;2022-07-23T05:41:55;22.20;94.20
27978;DHT22;15314;49.248;6.968;2022-07-23T05:42:55;22.10;93.70
27978;DHT22;15314;49.248;6.968;2022-07-23T05:43:56;22.20;93.00
27978;DHT22;15314;49.248;6.968;2022-07-23T05:44:57;22.20;92.70
27978;DHT22;15314;49.248;6.968;2022-07-23T05:45:58;22.00;92.60
27978;DHT22;15314;49.248;6.968;2022-07-23T05:46:58;22.10;92.60
27978;DHT22;15314;49.248;6.968;2022-07-23T05:47:59;22.20;92.50
27978;DHT22;15314;49.248;6.968;2022-07-23T05:49:00;22.10;92.40
27978;DHT22;15314;49.248;6.968;2022-07-23T05:50:00;22.10;92.70
27978;DHT22;15314;49.248;6.968;2022-07-23T05:51:01;22.10;92.60
27978;DHT22;15314;49.248;6.968;2022-07-23T05:52:05;22.00;92.80
27978;DHT22;15314;49.248;6.968;2022-07-23T05:53:06;22.10;92.80
27978;DHT22;15314;49.248;6.968;2022-07-23T05:54:06;22.20;92.20
27978;DHT22;15314;49.248;6.968;2022-07-23T05:55:08;22.30;91.80
27978;DHT22;15314;49.248;6.968;2022-07-23T05:56:11;22.30;91.60
27978;DHT22;15314;49.248;6.968;2022-07-23T05:57:12;22.50;91.50
27978;DHT22;15314;49.248;6.968;2022-07-23T05:58:12;22.50;91.20
27978;DHT22;15314;49.248;6.968;2022-07-23T05:59:13;22.60;91.30
27978;DHT22;15314;49.248;6.968;2022-07-23T06:00:15;22.60;90.90
27978;DHT22;15314;49.248;6.968;2022-07-23T06:01:15;22.60;91.20
27978;DHT22;15314;49.248;6.968;2022-07-23T06:02:16;22.60;91.30
27978;DHT22;15314;49.248;6.968;2022-07-23T06:03:17;22.70;91.10
27978;DHT22;15314;49.248;6.968;2022-07-23T06:04:17;22.80;91.00
27978;DHT22;15314;49.248;6.968;2022-07-23T06:05:18;22.80;90.80
27978;DHT22;15314;49.248;6.968;2022-07-23T06:06:19;22.80;90.70
27978;DHT22;15314;49.248;6.968;2022-07-23T06:07:19;22.80;90.80
27978;DHT22;15314;49.248;6.968;2022-07-23T06:08:20;22.80;90.50
27978;DHT22;15314;49.248;6.968;2022-07-23T06:09:21;22.80;90.80
27978;DHT22;15314;49.248;6.968;2022-07-23T06:10:21;22.90;90.80
27978;DHT22;15314;49.248;6.968;2022-07-23T06:11:22;22.80;90.90
27978;DHT22;15314;49.248;6.968;2022-07-23T06:12:22;22.90;90.80
27978;DHT22;15314;49.248;6.968;2022-07-23T06:13:24;23.00;90.80
27978;DHT22;15314;49.248;6.968;2022-07-23T06:14:25;23.10;90.60
27978;DHT22;15314;49.248;6.968;2022-07-23T06:15:26;23.20;90.60
27978;DHT22;15314;49.248;6.968;2022-07-23T06:16:29;23.30;90.40
27978;DHT22;15314;49.248;6.968;2022-07-23T06:17:30;23.30;90.30
27978;DHT22;15314;49.248;6.968;2022-07-23T06:18:31;23.40;90.00
27978;DHT22;15314;49.248;6.968;2022-07-23T06:19:31;23.40;89.90
27978;DHT22;15314;49.248;6.968;2022-07-23T06:20:32;23.50;89.50
27978;DHT22;15314;49.248;6.968;2022-07-23T06:21:33;23.50;89.00
27978;DHT22;15314;49.248;6.968;2022-07-23T06:22:34;23.50;89.00
27978;DHT22;15314;49.248;6.968;2022-07-23T06:23:37;23.40;89.30
27978;DHT22;15314;49.248;6.968;2022-07-23T06:24:37;23.50;89.30